Latest Weather Observations for Moorabbin Airport

IDV60801

Issued at 12:31 pm EST Thursday 5 May 2016 (issued every 30 minutes, with the page automatically refreshed every 10 minutes)

About weather observations | Map of weather stations | Latest weather observations for VIC | Other Formats
Station Details ID: 086077 Name: MOORABBIN AIRPORT Lat: -37.98 Lon: 145.10 Height: 12.1 m
Data from the previous 72 hours. | See also: Recent months at Moorabbin Airport
Date/Time
EST
Temp
°C
App
Temp
°C
Dew
Point
Rel
Hum
%
Delta-T
°C
Wind Press
QNH
hPa
Press
MSL
hPa
Rain
since 9 am
mm
Dir
 
Spd
km/h
Gust
km/h
Spd
kts
Gust
kts
05/12:30pm 20.2 11.9 9.2 49 5.8 NNW 43 59 23 32 1013.6 1013.6 0.0
05/12:08pm 20.2 12.6 9.2 49 5.8 N 39 57 21 31 1014.0 1014.0 0.0
05/12:00pm 20.2 13.4 9.2 49 5.8 NNW 35 52 19 28 1014.1 1014.1 0.0
05/11:47am 20.0 13.6 8.7 48 5.9 N 32 50 17 27 1014.3 1014.3 0.0
05/11:30am 19.7 13.2 9.0 50 5.6 NNW 33 46 18 25 1014.7 1014.7 0.0
05/11:03am 18.9 12.6 9.1 53 5.1 N 32 50 17 27 1015.4 1015.4 0.0
05/11:00am 19.0 12.6 9.2 53 5.1 N 33 46 18 25 1015.5 1015.5 0.0
05/10:30am 18.1 11.2 8.9 55 4.8 N 35 50 19 27 1015.7 1015.7 0.0
05/10:11am 17.1 11.4 8.5 57 4.4 N 28 50 15 27 1016.1 1016.1 0.0
05/10:00am 16.9 12.0 8.6 58 4.2 N 24 32 13 17 1016.3 1016.3 0.0
05/09:30am 16.6 10.9 8.3 58 4.2 N 28 39 15 21 1016.5 1016.5 0.0
05/09:00am 15.7 11.5 8.2 61 3.8 NNE 20 28 11 15 1016.6 1016.6 0.0
05/08:30am 15.5 10.5 8.0 61 3.8 N 24 32 13 17 1016.4 1016.4 0.0
05/08:00am 15.0 10.7 7.8 62 3.6 N 20 26 11 14 1016.4 1016.4 0.0
05/07:30am 14.6 10.2 7.4 62 3.5 N 20 28 11 15 1016.2 1016.2 0.0
05/07:00am 15.1 9.9 7.4 60 3.8 N 24 30 13 16 1016.0 1016.0 0.0
05/06:30am 15.2 9.6 7.0 58 4.0 N 26 39 14 21 1015.9 1015.9 0.0
05/06:00am 15.0 9.1 7.3 60 3.8 N 28 37 15 20 1015.8 1015.8 0.0
05/05:30am 14.9 9.0 7.5 61 3.7 N 28 37 15 20 1015.7 1015.7 0.0
05/05:00am 14.3 8.8 7.6 64 3.3 N 26 35 14 19 1015.4 1015.4 0.0
05/04:30am 14.1 9.0 7.6 65 3.2 N 24 32 13 17 1015.6 1015.6 0.0
05/04:00am 13.8 8.7 7.6 66 3.0 N 24 30 13 16 1015.7 1015.7 0.0
05/03:30am 14.2 9.4 7.5 64 3.3 N 22 30 12 16 1015.9 1015.9 0.0
05/03:00am 13.7 9.3 7.2 65 3.2 N 20 28 11 15 1016.0 1016.0 0.0
05/02:30am 13.7 9.2 7.0 64 3.3 NNW 20 26 11 14 1016.3 1016.3 0.0
05/02:00am 13.9 9.5 7.2 64 3.3 N 20 26 11 14 1016.2 1016.2 0.0
05/01:30am 14.0 9.5 7.1 63 3.4 N 20 28 11 15 1016.3 1016.3 0.0
05/01:00am 13.7 10.1 6.8 63 3.3 N 15 20 8 11 1016.4 1016.4 0.0
05/12:30am 13.9 9.9 6.7 62 3.5 N 17 22 9 12 1016.4 1016.4 0.0
05/12:00am 14.9 10.0 6.7 58 4.0 N 22 32 12 17 1016.4 1016.4 0.0
 
Date/Time
EST
Temp
°C
App
Temp
°C
Dew
Point
Rel
Hum
%
Delta-T
°C
Wind Press
QNH
hPa
Press
MSL
hPa
Rain
since 9 am
mm
Dir
 
Spd
km/h
Gust
km/h
Spd
kts
Gust
kts
04/11:30pm 15.0 9.3 6.8 58 4.0 N 26 35 14 19 1016.3 1016.3 0.0
04/11:00pm 15.1 9.5 7.2 59 3.9 N 26 35 14 19 1016.3 1016.3 0.0
04/10:30pm 15.0 9.8 7.1 59 3.9 N 24 32 13 17 1016.6 1016.6 0.0
04/10:00pm 15.2 9.5 6.7 57 4.1 N 26 35 14 19 1016.6 1016.6 0.0
04/09:30pm 15.2 10.3 6.7 57 4.1 N 22 30 12 16 1016.7 1016.7 0.0
04/09:00pm 15.1 9.7 6.4 56 4.2 N 24 33 13 18 1016.6 1016.6 0.0
04/08:30pm 14.8 10.2 6.4 57 4.1 N 20 30 11 16 1016.4 1016.4 0.0
04/08:00pm 15.1 9.6 6.1 55 4.3 N 24 33 13 18 1016.1 1016.1 0.0
04/07:30pm 15.3 9.5 6.1 54 4.4 N 26 33 14 18 1016.0 1016.0 0.0
04/07:00pm 15.1 9.7 6.4 56 4.2 N 24 35 13 19 1015.7 1015.7 0.0
04/06:30pm 15.2 9.4 6.2 55 4.3 N 26 39 14 21 1015.4 1015.4 0.0
04/06:00pm 15.6 10.5 6.1 53 4.6 N 22 30 12 16 1015.1 1015.1 0.0
04/05:30pm 15.9 10.3 5.5 50 5.0 N 24 37 13 20 1014.8 1014.8 0.0
04/05:00pm 16.2 11.3 5.2 48 5.2 NNW 20 28 11 15 1014.5 1014.5 0.0
04/04:30pm 16.0 10.7 5.0 48 5.2 NNW 22 28 12 15 1014.3 1014.3 0.0
04/04:00pm 16.6 10.8 4.6 45 5.7 NNW 24 33 13 18 1014.3 1014.3 0.0
04/03:30pm 16.7 11.3 4.7 45 5.7 NNW 22 33 12 18 1014.2 1014.2 0.0
04/03:00pm 16.6 11.2 4.6 45 5.7 NNW 22 32 12 17 1014.1 1014.1 0.0
04/02:30pm 16.7 11.2 4.1 43 5.9 NW 22 32 12 17 1014.0 1014.0 0.0
04/02:00pm 17.4 11.7 4.7 43 6.0 NW 24 32 13 17 1014.0 1014.0 0.0
04/01:30pm 17.4 12.1 5.0 44 5.9 WNW 22 33 12 18 1014.1 1014.1 0.0
04/01:00pm 16.5 10.6 3.9 43 5.9 NW 24 33 13 18 1014.2 1014.2 0.0
04/12:30pm 16.5 11.5 4.5 45 5.6 WNW 20 28 11 15 1014.6 1014.6 0.0
04/12:00pm 16.3 11.3 4.7 46 5.5 NW 20 32 11 17 1015.0 1015.0 0.0
04/11:30am 16.0 11.2 5.6 50 5.0 NW 20 32 11 17 1015.2 1015.2 0.0
04/11:00am 15.1 9.5 5.3 52 4.6 NNW 24 37 13 20 1015.2 1015.2 0.0
04/10:30am 15.0 10.4 6.3 56 4.2 NW 20 28 11 15 1015.2 1015.2 0.0
04/10:00am 14.2 9.1 5.8 57 4.0 NW 22 32 12 17 1015.4 1015.4 0.0
04/09:30am 13.4 8.7 6.0 61 3.5 NNW 20 30 11 16 1015.4 1015.4 0.0
04/09:00am 12.5 7.9 5.7 63 3.2 NNW 19 26 10 14 1015.2 1015.2 5.0
04/08:30am 11.4 7.6 5.7 68 2.6 NNW 15 20 8 11 1015.0 1015.0 5.0
04/08:00am 9.8 6.3 5.4 74 2.0 N 13 17 7 9 1014.6 1014.6 5.0
04/07:30am 8.8 5.1 4.2 73 2.0 N 13 15 7 8 1014.2 1014.2 5.0
04/07:00am 9.7 6.1 4.9 72 2.2 NNW 13 19 7 10 1013.7 1013.7 5.0
04/06:30am 10.6 6.7 5.4 70 2.4 NW 15 22 8 12 1013.4 1013.4 5.0
04/06:00am 11.0 7.6 5.7 70 2.4 NW 13 19 7 10 1012.8 1012.8 5.0
04/05:30am 11.0 7.6 5.7 70 2.4 NW 13 20 7 11 1012.5 1012.5 5.0
04/05:00am 11.3 7.1 5.6 68 2.6 NW 17 24 9 13 1011.8 1011.8 5.0
04/04:30am 11.1 7.6 5.4 68 2.6 NW 13 20 7 11 1011.4 1011.4 5.0
04/04:00am 11.3 7.1 5.6 68 2.6 NW 17 24 9 13 1011.3 1011.3 5.0
04/03:30am 11.4 7.6 5.7 68 2.6 NW 15 20 8 11 1010.7 1010.7 5.0
04/03:00am 11.3 7.9 5.8 69 2.6 NW 13 17 7 9 1010.4 1010.4 5.0
04/02:30am 11.8 8.4 5.9 67 2.8 NW 13 19 7 10 1010.1 1010.1 5.0
04/02:00am 12.2 7.4 5.8 65 3.0 NW 20 30 11 16 1009.8 1009.8 5.0
04/01:30am 12.6 7.8 5.5 62 3.3 WNW 20 32 11 17 1009.8 1009.8 5.0
04/01:00am 12.8 7.6 5.7 62 3.3 WNW 22 35 12 19 1009.7 1009.7 5.0
04/12:30am 13.1 8.0 6.0 62 3.4 WNW 22 32 12 17 1009.5 1009.5 5.0
04/12:00am 13.5 9.0 6.1 61 3.5 WNW 19 28 10 15 1009.4 1009.4 5.0
 
Date/Time
EST
Temp
°C
App
Temp
°C
Dew
Point
Rel
Hum
%
Delta-T
°C
Wind Press
QNH
hPa
Press
MSL
hPa
Rain
since 9 am
mm
Dir
 
Spd
km/h
Gust
km/h
Spd
kts
Gust
kts
03/11:30pm 13.8 8.2 5.4 57 3.9 WNW 24 39 13 21 1008.9 1008.9 5.0
03/11:00pm 13.5 8.8 5.9 60 3.6 NW 20 32 11 17 1008.4 1008.4 5.0
03/10:30pm 13.5 9.3 5.9 60 3.6 WNW 17 28 9 15 1008.4 1008.4 5.0
03/10:00pm 13.8 10.1 6.2 60 3.6 WNW 15 24 8 13 1008.1 1008.1 5.0
03/09:30pm 14.3 9.7 6.4 59 3.8 WNW 20 32 11 17 1007.8 1007.8 5.0
03/09:00pm 14.3 10.8 7.4 63 3.4 NW 15 26 8 14 1007.3 1007.3 5.0
03/08:30pm 14.2 10.9 7.9 66 3.1 W 15 20 8 11 1007.0 1007.0 5.0
03/08:00pm 14.2 11.0 8.4 68 2.9 W 15 26 8 14 1006.8 1006.8 5.0
03/07:30pm 14.3 10.7 8.3 67 3.0 W 17 26 9 14 1006.4 1006.4 5.0
03/07:00pm 14.4 9.9 8.4 67 3.0 W 22 39 12 21 1006.0 1006.0 5.0
03/06:30pm 14.6 8.9 8.3 66 3.2 W 28 41 15 22 1005.1 1005.1 5.0
03/06:01pm 14.5 9.2 9.9 74 2.4 WNW 28 46 15 25 1004.2 1004.2 5.0
03/06:00pm 14.5 9.6 9.9 74 2.4 WNW 26 43 14 23 1004.2 1004.2 5.0
03/05:30pm 14.2 10.7 10.2 77 2.1 WNW 19 28 10 15 1003.6 1003.6 5.0
03/05:00pm 14.0 10.2 11.2 83 1.5 WNW 22 43 12 23 1003.0 1003.0 5.0
03/04:54pm 13.8 10.0 11.3 85 1.3 WNW 22 48 12 26 1002.7 1002.7 5.0
03/04:30pm 13.7 9.5 11.2 85 1.3 W 24 41 13 22 1002.1 1002.1 4.0
03/04:20pm 13.7 6.9 10.7 82 1.6 W 37 56 20 30 1001.9 1001.9 3.8
03/04:17pm 13.6 6.4 10.4 81 1.7 W 39 56 21 30 1001.7 1001.7 3.6
03/04:00pm 14.4 9.0 11.0 80 1.8 W 30 52 16 28 1001.3 1001.3 2.8
03/03:57pm 14.2 9.1 10.6 79 1.9 W 28 52 15 28 1001.1 1001.1 2.8
03/03:54pm 14.6 10.3 10.8 78 2.0 WNW 24 52 13 28 1001.3 1001.3 2.8
03/03:30pm 16.1 10.6 12.3 78 2.1 NNW 33 50 18 27 999.8 999.8 1.2
03/03:12pm 17.2 9.4 11.2 68 3.2 NNW 43 67 23 36 998.8 998.8 0.4
03/03:02pm 18.0 10.9 10.9 63 3.8 NNW 39 57 21 31 998.9 998.9 0.0
03/03:00pm 18.2 10.7 10.8 62 4.0 NNW 41 57 22 31 998.9 998.9 0.0
03/02:30pm 19.1 10.3 9.6 54 5.0 NNW 46 65 25 35 998.1 998.1 0.0
03/02:00pm 18.2 9.6 9.0 55 4.8 N 44 63 24 34 998.5 998.5 0.0
03/01:30pm 19.0 8.9 8.9 52 5.3 NNW 52 74 28 40 998.2 998.2 0.0
03/01:00pm 18.8 8.6 8.5 51 5.4 NNW 52 76 28 41 998.3 998.3 0.0
03/12:30pm 18.9 8.6 8.3 50 5.5 NNW 52 80 28 43 998.2 998.2 0.0
03/12:00pm 19.5 10.0 8.5 49 5.8 NNW 48 76 26 41 998.7 998.7 0.0
03/11:30am 19.5 7.7 7.6 46 6.1 NNW 59 80 32 43 999.2 999.2 0.0
03/11:00am 19.2 8.2 7.0 45 6.2 NNW 54 80 29 43 999.5 999.5 0.0
03/10:31am 19.8 9.8 7.9 46 6.1 NNW 50 74 27 40 1000.0 1000.0 0.0
03/10:30am 18.1 7.8 6.3 46 5.8 NNW 50 67 27 36 1000.2 1000.2 0.0
03/10:00am 18.1 7.5 6.9 48 5.6 NNW 52 72 28 39 1000.6 1000.6 0.0
03/09:30am 17.3 7.1 7.1 51 5.1 N 50 70 27 38 1000.6 1000.6 0.0
03/09:00am 16.7 7.2 6.8 52 4.9 NNW 46 69 25 37 1001.1 1001.1 0.0
03/08:30am 16.3 7.2 7.0 54 4.6 N 44 67 24 36 1001.5 1001.5 0.0
03/08:00am 15.9 7.1 7.1 56 4.4 N 43 63 23 34 1001.7 1001.7 0.0
03/07:30am 15.5 6.6 6.8 56 4.3 N 43 61 23 33 1002.0 1002.0 0.0
03/07:00am 15.4 6.4 6.4 55 4.4 N 43 63 23 34 1001.8 1001.8 0.0
03/06:30am 15.4 6.8 6.4 55 4.4 NNW 41 59 22 32 1002.3 1002.3 0.0
03/06:13am 15.3 6.7 6.3 55 4.4 N 41 59 22 32 1002.4 1002.4 0.0
03/06:00am 15.6 7.7 6.3 54 4.5 NNW 37 54 20 29 1002.6 1002.6 0.0
03/05:45am 15.5 8.5 6.2 54 4.5 NNW 32 50 17 27 1002.8 1002.8 0.0
03/05:30am 15.2 8.6 6.2 55 4.3 N 30 39 16 21 1002.7 1002.7 0.0
03/05:00am 15.0 7.2 6.6 57 4.1 N 37 57 20 31 1002.5 1002.5 0.0
03/04:37am 15.0 7.2 6.6 57 4.1 N 37 56 20 30 1002.6 1002.6 0.0
03/04:30am 14.7 7.3 6.8 59 3.8 N 35 46 19 25 1002.8 1002.8 0.0
03/04:00am 14.9 6.7 6.7 58 4.0 N 39 54 21 29 1003.3 1003.3 0.0
03/03:34am 15.1 7.2 6.4 56 4.2 N 37 56 20 30 1004.1 1004.1 0.0
03/03:30am 15.2 6.9 6.2 55 4.3 N 39 56 21 30 1004.2 1004.2 0.0
03/03:00am 15.6 6.5 6.1 53 4.6 N 43 61 23 33 1004.7 1004.7 0.0
03/02:34am 15.7 6.5 5.6 51 4.8 NNW 43 61 23 33 1004.4 1004.4 0.0
03/02:30am 15.6 6.4 5.5 51 4.8 N 43 57 23 31 1004.5 1004.5 0.0
03/02:00am 15.3 6.1 5.5 52 4.7 N 43 67 23 36 1004.6 1004.6 0.0
03/01:30am 15.5 6.1 5.4 51 4.8 N 44 65 24 35 1004.6 1004.6 0.0
03/01:00am 15.6 6.3 5.2 50 4.9 N 43 61 23 33 1005.3 1005.3 0.0
03/12:30am 15.7 6.2 5.0 49 5.1 NNW 44 67 24 36 1005.8 1005.8 0.0
03/12:24am 15.8 6.5 5.1 49 5.1 NNW 43 67 23 36 1005.9 1005.9 0.0
03/12:00am 15.5 6.2 5.1 50 4.9 N 43 57 23 31 1005.8 1005.8 0.0
 
Date/Time
EST
Temp
°C
App
Temp
°C
Dew
Point
Rel
Hum
%
Delta-T
°C
Wind Press
QNH
hPa
Press
MSL
hPa
Rain
since 9 am
mm
Dir
 
Spd
km/h
Gust
km/h
Spd
kts
Gust
kts
02/11:44pm 15.7 6.4 5.0 49 5.1 N 43 63 23 34 1005.8 1005.8 0.0
02/11:30pm 15.5 7.4 5.1 50 4.9 N 37 52 20 28 1006.3 1006.3 0.0
02/11:00pm 15.9 7.0 4.9 48 5.2 N 41 61 22 33 1006.6 1006.6 0.0
02/10:30pm 15.9 7.4 5.2 49 5.1 N 39 57 21 31 1007.1 1007.1 0.0
02/10:07pm 15.6 7.1 5.2 50 4.9 N 39 57 21 31 1007.2 1007.2 0.0
02/10:00pm 15.8 7.3 5.1 49 5.1 N 39 56 21 30 1007.1 1007.1 0.0
02/09:38pm 15.6 7.9 5.2 50 4.9 N 35 54 19 29 1007.6 1007.6 0.0
02/09:30pm 15.5 7.4 5.1 50 4.9 N 37 50 20 27 1007.7 1007.7 0.0
02/09:21pm 15.5 7.1 5.4 51 4.8 N 39 57 21 31 1007.6 1007.6 0.0
02/09:00pm 15.4 6.9 5.3 51 4.8 N 39 50 21 27 1007.6 1007.6 0.0
02/08:35pm 15.3 6.9 5.5 52 4.7 N 39 57 21 31 1007.8 1007.8 0.0
02/08:30pm 15.5 6.4 5.7 52 4.7 N 43 57 23 31 1007.8 1007.8 0.0
02/08:03pm 15.6 8.6 5.8 52 4.7 N 32 57 17 31 1008.1 1008.1 0.0
02/08:00pm 15.3 8.6 5.8 53 4.6 N 30 39 16 21 1008.3 1008.3 0.0
02/07:30pm 14.7 8.1 6.0 56 4.2 N 30 41 16 22 1008.5 1008.5 0.0
02/07:00pm 15.1 8.0 6.4 56 4.2 N 33 52 18 28 1008.3 1008.3 0.0
02/06:35pm 15.3 7.8 6.1 54 4.4 N 35 56 19 30 1008.3 1008.3 0.0
02/06:30pm 15.2 7.6 5.7 53 4.5 N 35 44 19 24 1008.3 1008.3 0.0
02/06:04pm 15.7 8.9 5.0 49 5.1 N 30 48 16 26 1008.3 1008.3 0.0
02/06:00pm 15.6 8.8 5.2 50 4.9 N 30 39 16 21 1008.4 1008.4 0.0
02/05:30pm 16.1 9.2 4.8 47 5.3 N 30 41 16 22 1008.6 1008.6 0.0
02/05:00pm 16.5 8.3 4.9 46 5.5 N 37 56 20 30 1008.5 1008.5 0.0
02/04:45pm 16.9 9.7 5.2 46 5.6 N 32 50 17 27 1008.5 1008.5 0.0
02/04:30pm 16.7 9.8 7.1 53 4.8 N 33 43 18 23 1008.8 1008.8 0.0
02/04:02pm 16.9 9.9 7.0 52 4.9 N 33 52 18 28 1008.7 1008.7 0.0
02/04:00pm 16.6 9.8 7.0 53 4.8 N 32 44 17 24 1008.8 1008.8 0.0
02/03:30pm 16.9 9.4 6.1 49 5.3 NNW 35 57 19 31 1009.0 1009.0 0.0
02/03:00pm 16.6 9.8 7.0 53 4.8 N 32 52 17 28 1009.2 1009.2 0.0
02/02:57pm 17.0 10.2 7.6 54 4.7 N 33 52 18 28 1009.3 1009.3 0.0
02/02:30pm 16.5 9.1 6.9 53 4.7 N 35 50 19 27 1009.2 1009.2 0.0
02/02:00pm 18.3 11.7 7.7 50 5.4 N 32 48 17 26 1009.4 1009.4 0.0
02/01:30pm 17.3 9.2 5.3 45 5.8 NNW 37 46 20 25 1009.6 1009.6 0.0
02/01:00pm 16.3 8.8 6.2 51 4.9 N 35 50 19 27 1009.7 1009.7 0.0

Other Formats:

Comma delimited format used in spreadsheet applications
http://www.bom.gov.au/fwo/IDV60801/IDV60801.94870.axf

JavaScript Object Notation format (JSON) in row-major order
http://www.bom.gov.au/fwo/IDV60801/IDV60801.94870.json